Ringsted, Iowa
Current Conditions -  °F | °C
As of 12:52 PM on Wednesday 26 Nov 2014 (Local Time) from KEST Reporting Station
Moderate Snow Moderate Snow  
Wind Chill: -13°   Ceiling: 1200
Heat Index: -5°   Visibility: 0.5mi
Dew Point: -6°   Wind: 20mph
Humidity: 92%   Direction: 360°N
Pressure: 30.12"   Gusts: NA
Location:  43.29°N, 94.51°W
Report Text: KEST 261852Z AUTO 36017KT 1/2SM SN FZFG FEW008 OVC012 M05/M06 A3012 RMK AO2 SLP218 P0000 T10501061
Loading
Personal Weather Stations






























Interactive Weather Map New forecast layout! Learn more

10-Day Weather Forecast

Advertisements
Track Severe Weather on mobile